Nicole Brent — WDC2615 — position and weather

sailwx.info

Track history (hours):
 
Tides and Currents Weather Stations Pressure Air Temp Water Temp Dewpoint Dewpoint Depression Visibility Wind Speed Wind Dir Waves Ship Positions

Nicole Brent

Owner: Kirby Inland Marine, LP, Houston, TX. More information available from US FCC via Universal Licensing System and Coast Guard Vessel Documentation Center.

Last reported at 2017-Dec-16 03:50 UTC. Time now 2017-Dec-16 07:07 UTC.
Position N 29°33' W 094°55'.

Length 115 m; draft 2.4 m.

Type: . MMSI: 366995620.

Date/timePositionNaut miles runAvg speedWind from/ knotsBaromVisibWave heightAir tempDewpointWater temp
2017-Dec-16 03:50N 29°33' W 094°55'3 8.1
2017-Dec-16 03:30N 29°35' W 094°56'4 8.2
2017-Dec-16 03:00N 29°39' W 094°58'4 7.4
2017-Dec-16 02:30N 29°42' W 095°00'3 6.8
2017-Dec-16 02:00N 29°44' W 095°03'4 3.5
2017-Dec-16 00:53N 29°44' W 095°08'2 6.0
2017-Dec-16 00:29N 29°45' W 095°11'1 2.0
2017-Dec-15 23:58N 29°44' W 095°12'0 0.0
2017-Dec-15 04:19N 29°44' W 095°12'0 0.0
2017-Dec-14 03:41N 29°44' W 095°12'0 0.0
2017-Dec-14 03:26N 29°44' W 095°12'0 0.0
2017-Dec-14 03:00N 29°44' W 095°12'  
2017-Dec-11 03:40N 29°44' W 095°12'0 0.0
2017-Dec-11 03:30N 29°44' W 095°12'0 0.0
2017-Dec-11 03:00N 29°44' W 095°12'1 1.7
2017-Dec-11 02:30N 29°45' W 095°11'4 7.1
2017-Dec-11 02:00N 29°44' W 095°07'3 5.4
2017-Dec-11 01:30N 29°45' W 095°04'3 6.9
2017-Dec-11 01:00N 29°42' W 095°01'4 7.2
2017-Dec-11 00:30N 29°40' W 094°58'4 7.8
2017-Dec-11 00:01N 29°36' W 094°57'4 8.0
2017-Dec-10 23:31N 29°33' W 094°54'58 5.3
2017-Dec-10 12:35N 29°55' W 093°53'1 9.1
2017-Dec-10 12:30N 29°56' W 093°52'59 1.8
2017-Dec-09 04:05N 29°31' W 094°53'1 7.3
2017-Dec-09 03:54N 29°32' W 094°54'3 7.8
2017-Dec-09 03:30N 29°35' W 094°56'4 8.2
2017-Dec-09 03:00N 29°38' W 094°58'4 8.0
2017-Dec-09 02:30N 29°42' W 095°00'4 7.5
2017-Dec-09 02:00N 29°44' W 095°03'3 5.7
2017-Dec-09 01:29N 29°44' W 095°07'4 7.1
2017-Dec-09 00:59N 29°45' W 095°11'1 1.8
2017-Dec-09 00:30N 29°44' W 095°12'0 0.0
2017-Dec-08 16:25N 29°44' W 095°12'0 0.0
2017-Dec-08 16:00N 29°44' W 095°12'0 0.0
2017-Dec-08 15:30N 29°44' W 095°12'0 0.0
2017-Dec-08 14:35N 29°44' W 095°12'0 0.0
2017-Dec-08 14:18N 29°44' W 095°12'0 0.0
2017-Dec-08 14:00N 29°44' W 095°12'0 0.0
2017-Dec-08 13:30N 29°44' W 095°12'0 0.0
2017-Dec-08 13:01N 29°44' W 095°12'0 0.0
2017-Dec-08 12:27N 29°44' W 095°12'0 0.0
2017-Dec-08 12:00N 29°44' W 095°12'0 0.0
2017-Dec-08 11:30N 29°44' W 095°12'0 0.0
2017-Dec-08 11:00N 29°44' W 095°12'0 0.0
2017-Dec-08 10:30N 29°44' W 095°12'0 0.0
2017-Dec-08 10:00N 29°44' W 095°12'0 0.0
2017-Dec-08 09:30N 29°44' W 095°12'0 0.0
2017-Dec-08 09:00N 29°44' W 095°12'0 0.0
2017-Dec-08 08:30N 29°44' W 095°12'0 0.0
2017-Dec-08 08:00N 29°44' W 095°12'0 0.0
2017-Dec-08 07:30N 29°44' W 095°12'0 0.0
2017-Dec-08 07:00N 29°44' W 095°12'0 0.0
2017-Dec-08 06:30N 29°44' W 095°12'0 0.0
2017-Dec-08 06:01N 29°44' W 095°12'0 0.0
2017-Dec-08 05:30N 29°44' W 095°12'0 0.0
2017-Dec-08 05:00N 29°44' W 095°12'0 0.0
2017-Dec-08 04:30N 29°44' W 095°12'0 0.0
2017-Dec-08 04:00N 29°44' W 095°12'0 0.0
2017-Dec-08 03:30N 29°44' W 095°12'0 0.0
2017-Dec-08 03:00N 29°44' W 095°12'0 0.0
2017-Dec-08 02:30N 29°44' W 095°12'0 0.0
2017-Dec-08 02:01N 29°44' W 095°12'0 0.0
2017-Dec-08 01:31N 29°44' W 095°12'0 0.0
2017-Dec-08 01:00N 29°44' W 095°12'0 0.0
2017-Dec-08 00:30N 29°44' W 095°12'0 0.0
2017-Dec-08 00:00N 29°44' W 095°12'0 0.0
2017-Dec-07 23:30N 29°44' W 095°12'0 0.0
2017-Dec-07 23:00N 29°44' W 095°12'0 0.0
2017-Dec-07 22:30N 29°44' W 095°12'0 0.0
2017-Dec-07 22:00N 29°44' W 095°12'0 0.0
2017-Dec-07 21:28N 29°44' W 095°12'0 0.0
2017-Dec-07 21:00N 29°44' W 095°12'0 0.0
2017-Dec-07 20:30N 29°44' W 095°12'0 0.0
2017-Dec-07 19:59N 29°44' W 095°12'0 0.0
2017-Dec-07 19:30N 29°44' W 095°12'0 0.0
2017-Dec-07 19:00N 29°44' W 095°12'0 0.0
2017-Dec-07 18:30N 29°44' W 095°12'0 0.0
2017-Dec-07 18:00N 29°44' W 095°12'0 0.0
2017-Dec-07 17:29N 29°44' W 095°12'0 0.0
2017-Dec-07 17:00N 29°44' W 095°12'0 0.0
2017-Dec-07 16:30N 29°44' W 095°12'0 0.0
2017-Dec-07 16:00N 29°44' W 095°12'0 0.0
2017-Dec-07 15:30N 29°44' W 095°12'0 0.0
2017-Dec-07 14:59N 29°44' W 095°12'0 0.0
2017-Dec-07 14:30N 29°44' W 095°12'0 0.0
2017-Dec-07 14:00N 29°44' W 095°12'0 0.0
2017-Dec-07 13:30N 29°44' W 095°12'0 0.0
2017-Dec-07 13:00N 29°44' W 095°12'0 0.0
2017-Dec-07 12:30N 29°44' W 095°12'0 0.0
2017-Dec-07 12:00N 29°44' W 095°12'0 0.0
2017-Dec-07 11:30N 29°44' W 095°12'0 0.0
2017-Dec-07 11:00N 29°44' W 095°12'0 0.0
2017-Dec-07 10:30N 29°44' W 095°12'0 0.0
2017-Dec-07 10:00N 29°44' W 095°12'0 0.0
2017-Dec-07 09:30N 29°44' W 095°12'0 0.0
2017-Dec-07 09:00N 29°44' W 095°12'0 0.0
2017-Dec-07 08:30N 29°44' W 095°12'0 0.0
2017-Dec-07 08:00N 29°44' W 095°12'0 0.0
2017-Dec-07 07:30N 29°44' W 095°12'0 0.0
2017-Dec-07 07:00N 29°44' W 095°12'0 0.0
2017-Dec-07 06:30N 29°44' W 095°12'0 0.0
2017-Dec-07 06:00N 29°44' W 095°12'0 0.0
2017-Dec-07 05:30N 29°44' W 095°12'0 0.0
2017-Dec-07 05:00N 29°44' W 095°12'0 0.0
2017-Dec-07 04:30N 29°44' W 095°12'0 0.0
2017-Dec-07 04:00N 29°44' W 095°12'0 0.0
2017-Dec-07 03:30N 29°44' W 095°12'0 0.0
2017-Dec-07 03:00N 29°44' W 095°12'0 0.0
2017-Dec-07 02:30N 29°44' W 095°12'0 0.0
2017-Dec-07 02:00N 29°44' W 095°12'0 0.0
2017-Dec-07 01:30N 29°44' W 095°12'0 0.0
2017-Dec-07 01:00N 29°44' W 095°12'0 0.0
2017-Dec-07 00:30N 29°44' W 095°12'0 0.0
2017-Dec-07 00:00N 29°44' W 095°12'0 0.0
2017-Dec-06 23:30N 29°44' W 095°12'0 0.0
2017-Dec-06 23:00N 29°44' W 095°12'0 0.0
2017-Dec-06 22:29N 29°44' W 095°12'0 0.0
2017-Dec-06 21:58N 29°44' W 095°12'0 0.0
2017-Dec-06 21:30N 29°44' W 095°12'0 0.0
2017-Dec-06 20:50N 29°44' W 095°12'  
Track history (hours):
 
Tides and Currents Weather Stations Pressure Air Temp Water Temp Dewpoint Dewpoint Depression Visibility Wind Speed Wind Dir Waves Ship Positions

Nicole Brent

Owner: Kirby Inland Marine, LP, Houston, TX. More information available from US FCC via Universal Licensing System and Coast Guard Vessel Documentation Center.

Last reported at 2017-Dec-16 03:50 UTC. Time now 2017-Dec-16 07:07 UTC.
Position N 29°33' W 094°55'.

Length 115 m; draft 2.4 m.

Type: . MMSI: 366995620.

Date/timePositionNaut miles runAvg speedWind from/ knotsBaromVisibWave heightAir tempDewpointWater temp
2017-Dec-16 03:50N 29°33' W 094°55'3 8.1
2017-Dec-16 03:30N 29°35' W 094°56'4 8.2
2017-Dec-16 03:00N 29°39' W 094°58'4 7.4
2017-Dec-16 02:30N 29°42' W 095°00'3 6.8
2017-Dec-16 02:00N 29°44' W 095°03'4 3.5
2017-Dec-16 00:53N 29°44' W 095°08'2 6.0
2017-Dec-16 00:29N 29°45' W 095°11'1 2.0
2017-Dec-15 23:58N 29°44' W 095°12'0 0.0
2017-Dec-15 04:19N 29°44' W 095°12'0 0.0
2017-Dec-14 03:41N 29°44' W 095°12'0 0.0
2017-Dec-14 03:26N 29°44' W 095°12'0 0.0
2017-Dec-14 03:00N 29°44' W 095°12'  
2017-Dec-11 03:40N 29°44' W 095°12'0 0.0
2017-Dec-11 03:30N 29°44' W 095°12'0 0.0
2017-Dec-11 03:00N 29°44' W 095°12'1 1.7
2017-Dec-11 02:30N 29°45' W 095°11'4 7.1
2017-Dec-11 02:00N 29°44' W 095°07'3 5.4
2017-Dec-11 01:30N 29°45' W 095°04'3 6.9
2017-Dec-11 01:00N 29°42' W 095°01'4 7.2
2017-Dec-11 00:30N 29°40' W 094°58'4 7.8
2017-Dec-11 00:01N 29°36' W 094°57'4 8.0
2017-Dec-10 23:31N 29°33' W 094°54'58 5.3
2017-Dec-10 12:35N 29°55' W 093°53'1 9.1
2017-Dec-10 12:30N 29°56' W 093°52'59 1.8
2017-Dec-09 04:05N 29°31' W 094°53'1 7.3
2017-Dec-09 03:54N 29°32' W 094°54'3 7.8
2017-Dec-09 03:30N 29°35' W 094°56'4 8.2
2017-Dec-09 03:00N 29°38' W 094°58'4 8.0
2017-Dec-09 02:30N 29°42' W 095°00'4 7.5
2017-Dec-09 02:00N 29°44' W 095°03'3 5.7
2017-Dec-09 01:29N 29°44' W 095°07'4 7.1
2017-Dec-09 00:59N 29°45' W 095°11'1 1.8
2017-Dec-09 00:30N 29°44' W 095°12'0 0.0
2017-Dec-08 16:25N 29°44' W 095°12'0 0.0
2017-Dec-08 16:00N 29°44' W 095°12'0 0.0
2017-Dec-08 15:30N 29°44' W 095°12'0 0.0
2017-Dec-08 14:35N 29°44' W 095°12'0 0.0
2017-Dec-08 14:18N 29°44' W 095°12'0 0.0
2017-Dec-08 14:00N 29°44' W 095°12'0 0.0
2017-Dec-08 13:30N 29°44' W 095°12'0 0.0
2017-Dec-08 13:01N 29°44' W 095°12'0 0.0
2017-Dec-08 12:27N 29°44' W 095°12'0 0.0
2017-Dec-08 12:00N 29°44' W 095°12'0 0.0
2017-Dec-08 11:30N 29°44' W 095°12'0 0.0
2017-Dec-08 11:00N 29°44' W 095°12'0 0.0
2017-Dec-08 10:30N 29°44' W 095°12'0 0.0
2017-Dec-08 10:00N 29°44' W 095°12'0 0.0
2017-Dec-08 09:30N 29°44' W 095°12'0 0.0
2017-Dec-08 09:00N 29°44' W 095°12'0 0.0
2017-Dec-08 08:30N 29°44' W 095°12'0 0.0
2017-Dec-08 08:00N 29°44' W 095°12'0 0.0
2017-Dec-08 07:30N 29°44' W 095°12'0 0.0
2017-Dec-08 07:00N 29°44' W 095°12'0 0.0
2017-Dec-08 06:30N 29°44' W 095°12'0 0.0
2017-Dec-08 06:01N 29°44' W 095°12'0 0.0
2017-Dec-08 05:30N 29°44' W 095°12'0 0.0
2017-Dec-08 05:00N 29°44' W 095°12'0 0.0
2017-Dec-08 04:30N 29°44' W 095°12'0 0.0
2017-Dec-08 04:00N 29°44' W 095°12'0 0.0
2017-Dec-08 03:30N 29°44' W 095°12'0 0.0
2017-Dec-08 03:00N 29°44' W 095°12'0 0.0
2017-Dec-08 02:30N 29°44' W 095°12'0 0.0
2017-Dec-08 02:01N 29°44' W 095°12'0 0.0
2017-Dec-08 01:31N 29°44' W 095°12'0 0.0
2017-Dec-08 01:00N 29°44' W 095°12'0 0.0
2017-Dec-08 00:30N 29°44' W 095°12'0 0.0
2017-Dec-08 00:00N 29°44' W 095°12'0 0.0
2017-Dec-07 23:30N 29°44' W 095°12'0 0.0
2017-Dec-07 23:00N 29°44' W 095°12'0 0.0
2017-Dec-07 22:30N 29°44' W 095°12'0 0.0
2017-Dec-07 22:00N 29°44' W 095°12'0 0.0
2017-Dec-07 21:28N 29°44' W 095°12'0 0.0
2017-Dec-07 21:00N 29°44' W 095°12'0 0.0
2017-Dec-07 20:30N 29°44' W 095°12'0 0.0
2017-Dec-07 19:59N 29°44' W 095°12'0 0.0
2017-Dec-07 19:30N 29°44' W 095°12'0 0.0
2017-Dec-07 19:00N 29°44' W 095°12'0 0.0
2017-Dec-07 18:30N 29°44' W 095°12'0 0.0
2017-Dec-07 18:00N 29°44' W 095°12'0 0.0
2017-Dec-07 17:29N 29°44' W 095°12'0 0.0
2017-Dec-07 17:00N 29°44' W 095°12'0 0.0
2017-Dec-07 16:30N 29°44' W 095°12'0 0.0
2017-Dec-07 16:00N 29°44' W 095°12'0 0.0
2017-Dec-07 15:30N 29°44' W 095°12'0 0.0
2017-Dec-07 14:59N 29°44' W 095°12'0 0.0
2017-Dec-07 14:30N 29°44' W 095°12'0 0.0
2017-Dec-07 14:00N 29°44' W 095°12'0 0.0
2017-Dec-07 13:30N 29°44' W 095°12'0 0.0
2017-Dec-07 13:00N 29°44' W 095°12'0 0.0
2017-Dec-07 12:30N 29°44' W 095°12'0 0.0
2017-Dec-07 12:00N 29°44' W 095°12'0 0.0
2017-Dec-07 11:30N 29°44' W 095°12'0 0.0
2017-Dec-07 11:00N 29°44' W 095°12'0 0.0
2017-Dec-07 10:30N 29°44' W 095°12'0 0.0
2017-Dec-07 10:00N 29°44' W 095°12'0 0.0
2017-Dec-07 09:30N 29°44' W 095°12'0 0.0
2017-Dec-07 09:00N 29°44' W 095°12'0 0.0
2017-Dec-07 08:30N 29°44' W 095°12'0 0.0
2017-Dec-07 08:00N 29°44' W 095°12'0 0.0
2017-Dec-07 07:30N 29°44' W 095°12'0 0.0
2017-Dec-07 07:00N 29°44' W 095°12'0 0.0
2017-Dec-07 06:30N 29°44' W 095°12'0 0.0
2017-Dec-07 06:00N 29°44' W 095°12'0 0.0
2017-Dec-07 05:30N 29°44' W 095°12'0 0.0
2017-Dec-07 05:00N 29°44' W 095°12'0 0.0
2017-Dec-07 04:30N 29°44' W 095°12'0 0.0
2017-Dec-07 04:00N 29°44' W 095°12'0 0.0
2017-Dec-07 03:30N 29°44' W 095°12'0 0.0
2017-Dec-07 03:00N 29°44' W 095°12'0 0.0
2017-Dec-07 02:30N 29°44' W 095°12'0 0.0
2017-Dec-07 02:00N 29°44' W 095°12'0 0.0
2017-Dec-07 01:30N 29°44' W 095°12'0 0.0
2017-Dec-07 01:00N 29°44' W 095°12'0 0.0
2017-Dec-07 00:30N 29°44' W 095°12'0 0.0
2017-Dec-07 00:00N 29°44' W 095°12'0 0.0
2017-Dec-06 23:30N 29°44' W 095°12'0 0.0
2017-Dec-06 23:00N 29°44' W 095°12'0 0.0
2017-Dec-06 22:29N 29°44' W 095°12'0 0.0
2017-Dec-06 21:58N 29°44' W 095°12'0 0.0
2017-Dec-06 21:30N 29°44' W 095°12'0 0.0
2017-Dec-06 20:50N 29°44' W 095°12'  

Dump ship's entire track history